sensor_id;sensor_type;location;lat;lon;timestamp;temperature;humidity
80252;DHT22;69562;37.974;23.708;2023-05-07T00:00:33;23.70;33.90
80252;DHT22;69562;37.974;23.708;2023-05-07T00:02:59;23.70;33.80
80252;DHT22;69562;37.974;23.708;2023-05-07T00:05:25;23.70;33.90
80252;DHT22;69562;37.974;23.708;2023-05-07T00:07:51;23.70;33.80
80252;DHT22;69562;37.974;23.708;2023-05-07T00:10:18;23.70;33.90
80252;DHT22;69562;37.974;23.708;2023-05-07T00:12:43;23.70;33.90
80252;DHT22;69562;37.974;23.708;2023-05-07T00:15:09;23.70;33.90
80252;DHT22;69562;37.974;23.708;2023-05-07T00:17:34;23.70;33.90
80252;DHT22;69562;37.974;23.708;2023-05-07T00:20:00;23.70;34.00
80252;DHT22;69562;37.974;23.708;2023-05-07T00:22:25;23.70;33.90
80252;DHT22;69562;37.974;23.708;2023-05-07T00:24:51;23.70;33.90
80252;DHT22;69562;37.974;23.708;2023-05-07T00:27:17;23.70;33.90
80252;DHT22;69562;37.974;23.708;2023-05-07T00:29:42;23.70;33.90
80252;DHT22;69562;37.974;23.708;2023-05-07T00:32:08;23.70;33.90
80252;DHT22;69562;37.974;23.708;2023-05-07T00:34:34;23.70;33.90
80252;DHT22;69562;37.974;23.708;2023-05-07T00:37:00;23.70;33.90
80252;DHT22;69562;37.974;23.708;2023-05-07T00:39:26;23.70;34.00
80252;DHT22;69562;37.974;23.708;2023-05-07T00:41:52;23.70;33.90
80252;DHT22;69562;37.974;23.708;2023-05-07T00:44:17;23.70;33.90
80252;DHT22;69562;37.974;23.708;2023-05-07T00:46:43;23.70;33.90
80252;DHT22;69562;37.974;23.708;2023-05-07T00:49:10;23.70;33.90
80252;DHT22;69562;37.974;23.708;2023-05-07T00:51:35;23.70;34.00
80252;DHT22;69562;37.974;23.708;2023-05-07T00:54:02;23.70;34.00
80252;DHT22;69562;37.974;23.708;2023-05-07T00:56:27;23.70;34.00
80252;DHT22;69562;37.974;23.708;2023-05-07T00:58:53;23.70;34.00
80252;DHT22;69562;37.974;23.708;2023-05-07T01:01:19;23.70;34.00
80252;DHT22;69562;37.974;23.708;2023-05-07T01:03:45;23.70;34.00
80252;DHT22;69562;37.974;23.708;2023-05-07T01:06:10;23.70;34.00
80252;DHT22;69562;37.974;23.708;2023-05-07T01:08:38;23.70;34.00
80252;DHT22;69562;37.974;23.708;2023-05-07T01:11:05;23.70;34.00
80252;DHT22;69562;37.974;23.708;2023-05-07T01:13:31;23.70;34.00
80252;DHT22;69562;37.974;23.708;2023-05-07T01:15:57;23.70;34.10
80252;DHT22;69562;37.974;23.708;2023-05-07T01:18:23;23.70;34.00
80252;DHT22;69562;37.974;23.708;2023-05-07T01:20:49;23.70;34.00
80252;DHT22;69562;37.974;23.708;2023-05-07T01:23:14;23.70;34.10
80252;DHT22;69562;37.974;23.708;2023-05-07T01:25:40;23.70;34.10
80252;DHT22;69562;37.974;23.708;2023-05-07T01:28:06;23.70;34.10
80252;DHT22;69562;37.974;23.708;2023-05-07T01:30:31;23.70;34.10
80252;DHT22;69562;37.974;23.708;2023-05-07T01:35:27;23.70;34.00
80252;DHT22;69562;37.974;23.708;2023-05-07T01:37:54;23.70;34.00
80252;DHT22;69562;37.974;23.708;2023-05-07T01:40:20;23.70;34.00
80252;DHT22;69562;37.974;23.708;2023-05-07T01:42:46;23.70;34.10
80252;DHT22;69562;37.974;23.708;2023-05-07T01:45:11;23.70;34.00
80252;DHT22;69562;37.974;23.708;2023-05-07T01:47:37;23.70;34.00
80252;DHT22;69562;37.974;23.708;2023-05-07T01:50:06;23.70;34.10
80252;DHT22;69562;37.974;23.708;2023-05-07T01:52:33;23.70;34.00
80252;DHT22;69562;37.974;23.708;2023-05-07T01:54:59;23.70;34.00
80252;DHT22;69562;37.974;23.708;2023-05-07T01:57:25;23.60;34.00
80252;DHT22;69562;37.974;23.708;2023-05-07T01:59:51;23.70;34.10
80252;DHT22;69562;37.974;23.708;2023-05-07T02:02:16;23.70;34.00
80252;DHT22;69562;37.974;23.708;2023-05-07T02:04:42;23.60;34.00
80252;DHT22;69562;37.974;23.708;2023-05-07T02:07:07;23.70;34.10
80252;DHT22;69562;37.974;23.708;2023-05-07T02:09:33;23.70;34.10
80252;DHT22;69562;37.974;23.708;2023-05-07T02:11:58;23.70;34.10
80252;DHT22;69562;37.974;23.708;2023-05-07T02:14:24;23.60;34.00
80252;DHT22;69562;37.974;23.708;2023-05-07T02:16:51;23.60;34.00
80252;DHT22;69562;37.974;23.708;2023-05-07T02:19:16;23.60;34.10
80252;DHT22;69562;37.974;23.708;2023-05-07T02:21:43;23.60;34.10
80252;DHT22;69562;37.974;23.708;2023-05-07T02:24:08;23.60;34.00
80252;DHT22;69562;37.974;23.708;2023-05-07T02:26:34;23.70;34.20
80252;DHT22;69562;37.974;23.708;2023-05-07T02:29:00;23.60;34.10
80252;DHT22;69562;37.974;23.708;2023-05-07T02:31:25;23.60;34.10
80252;DHT22;69562;37.974;23.708;2023-05-07T02:33:51;23.70;34.20
80252;DHT22;69562;37.974;23.708;2023-05-07T02:36:16;23.70;34.20
80252;DHT22;69562;37.974;23.708;2023-05-07T02:38:42;23.70;34.20
80252;DHT22;69562;37.974;23.708;2023-05-07T02:41:07;23.60;34.10
80252;DHT22;69562;37.974;23.708;2023-05-07T02:43:33;23.60;34.10
80252;DHT22;69562;37.974;23.708;2023-05-07T02:46:02;23.60;35.10
80252;DHT22;69562;37.974;23.708;2023-05-07T02:48:28;23.60;34.10
80252;DHT22;69562;37.974;23.708;2023-05-07T02:50:54;23.60;34.10
80252;DHT22;69562;37.974;23.708;2023-05-07T02:53:19;23.70;34.20
80252;DHT22;69562;37.974;23.708;2023-05-07T02:55:45;23.60;34.10
80252;DHT22;69562;37.974;23.708;2023-05-07T02:58:10;23.60;34.20
80252;DHT22;69562;37.974;23.708;2023-05-07T03:00:36;23.60;34.20
80252;DHT22;69562;37.974;23.708;2023-05-07T03:03:01;23.60;34.20
80252;DHT22;69562;37.974;23.708;2023-05-07T03:05:27;23.60;34.20
80252;DHT22;69562;37.974;23.708;2023-05-07T03:07:53;23.70;34.30
80252;DHT22;69562;37.974;23.708;2023-05-07T03:10:18;23.60;34.20
80252;DHT22;69562;37.974;23.708;2023-05-07T03:12:44;23.60;34.20
80252;DHT22;69562;37.974;23.708;2023-05-07T03:15:09;23.70;34.20
80252;DHT22;69562;37.974;23.708;2023-05-07T03:17:36;23.60;34.10
80252;DHT22;69562;37.974;23.708;2023-05-07T03:20:02;23.60;34.10
80252;DHT22;69562;37.974;23.708;2023-05-07T03:22:27;23.60;34.10
80252;DHT22;69562;37.974;23.708;2023-05-07T03:24:53;23.60;34.10
80252;DHT22;69562;37.974;23.708;2023-05-07T03:27:18;23.60;34.20
80252;DHT22;69562;37.974;23.708;2023-05-07T03:29:44;23.60;34.10
80252;DHT22;69562;37.974;23.708;2023-05-07T03:32:10;23.60;34.10
80252;DHT22;69562;37.974;23.708;2023-05-07T03:34:35;23.60;34.20
80252;DHT22;69562;37.974;23.708;2023-05-07T03:37:01;23.60;34.10
80252;DHT22;69562;37.974;23.708;2023-05-07T03:39:27;23.60;34.10
80252;DHT22;69562;37.974;23.708;2023-05-07T03:41:52;23.70;34.20
80252;DHT22;69562;37.974;23.708;2023-05-07T03:44:18;23.60;34.10
80252;DHT22;69562;37.974;23.708;2023-05-07T03:46:43;23.60;34.10
80252;DHT22;69562;37.974;23.708;2023-05-07T03:49:09;23.60;34.10
80252;DHT22;69562;37.974;23.708;2023-05-07T03:51:35;23.70;34.20
80252;DHT22;69562;37.974;23.708;2023-05-07T03:54:01;23.70;34.20
80252;DHT22;69562;37.974;23.708;2023-05-07T03:56:26;23.70;34.10
80252;DHT22;69562;37.974;23.708;2023-05-07T03:58:53;23.70;34.10
80252;DHT22;69562;37.974;23.708;2023-05-07T04:01:19;23.70;34.10
80252;DHT22;69562;37.974;23.708;2023-05-07T04:03:45;23.70;34.00
80252;DHT22;69562;37.974;23.708;2023-05-07T04:06:10;23.70;34.00
80252;DHT22;69562;37.974;23.708;2023-05-07T04:08:36;23.70;34.00
80252;DHT22;69562;37.974;23.708;2023-05-07T04:11:01;23.80;34.00
80252;DHT22;69562;37.974;23.708;2023-05-07T04:13:27;23.80;33.90
80252;DHT22;69562;37.974;23.708;2023-05-07T04:15:53;23.80;33.90
80252;DHT22;69562;37.974;23.708;2023-05-07T04:18:19;23.90;33.90
80252;DHT22;69562;37.974;23.708;2023-05-07T04:20:45;23.90;33.70
80252;DHT22;69562;37.974;23.708;2023-05-07T04:23:10;24.00;33.70
80252;DHT22;69562;37.974;23.708;2023-05-07T04:25:36;24.00;33.60
80252;DHT22;69562;37.974;23.708;2023-05-07T04:28:02;24.10;33.50
80252;DHT22;69562;37.974;23.708;2023-05-07T04:30:27;24.10;33.30
80252;DHT22;69562;37.974;23.708;2023-05-07T04:32:53;24.20;33.20
80252;DHT22;69562;37.974;23.708;2023-05-07T04:35:18;24.20;33.10
80252;DHT22;69562;37.974;23.708;2023-05-07T04:37:44;24.30;33.20
80252;DHT22;69562;37.974;23.708;2023-05-07T04:40:10;24.30;33.20
80252;DHT22;69562;37.974;23.708;2023-05-07T04:42:35;24.40;33.10
80252;DHT22;69562;37.974;23.708;2023-05-07T04:45:01;24.40;33.00
80252;DHT22;69562;37.974;23.708;2023-05-07T04:47:27;24.50;33.00
80252;DHT22;69562;37.974;23.708;2023-05-07T04:49:52;24.50;32.70
80252;DHT22;69562;37.974;23.708;2023-05-07T04:52:18;24.70;33.60
80252;DHT22;69562;37.974;23.708;2023-05-07T04:54:43;24.90;32.40
80252;DHT22;69562;37.974;23.708;2023-05-07T04:57:09;25.00;32.20
80252;DHT22;69562;37.974;23.708;2023-05-07T04:59:35;25.10;32.10
80252;DHT22;69562;37.974;23.708;2023-05-07T05:02:00;25.00;31.90
80252;DHT22;69562;37.974;23.708;2023-05-07T05:04:26;25.00;31.90
80252;DHT22;69562;37.974;23.708;2023-05-07T05:06:52;25.00;32.00
80252;DHT22;69562;37.974;23.708;2023-05-07T05:09:18;25.10;32.10
80252;DHT22;69562;37.974;23.708;2023-05-07T05:11:43;25.00;32.00
80252;DHT22;69562;37.974;23.708;2023-05-07T05:14:09;25.10;32.10
80252;DHT22;69562;37.974;23.708;2023-05-07T05:16:34;25.00;32.00
80252;DHT22;69562;37.974;23.708;2023-05-07T05:19:01;25.10;32.10
80252;DHT22;69562;37.974;23.708;2023-05-07T05:21:27;25.10;32.10
80252;DHT22;69562;37.974;23.708;2023-05-07T05:23:52;25.10;32.10
80252;DHT22;69562;37.974;23.708;2023-05-07T05:26:18;25.10;32.10
80252;DHT22;69562;37.974;23.708;2023-05-07T05:28:44;25.10;32.00
80252;DHT22;69562;37.974;23.708;2023-05-07T05:31:10;25.10;32.00
80252;DHT22;69562;37.974;23.708;2023-05-07T05:33:35;25.10;32.00
80252;DHT22;69562;37.974;23.708;2023-05-07T05:36:01;25.20;32.10
80252;DHT22;69562;37.974;23.708;2023-05-07T05:38:27;25.20;32.10
80252;DHT22;69562;37.974;23.708;2023-05-07T05:40:52;25.20;32.10
80252;DHT22;69562;37.974;23.708;2023-05-07T05:43:18;25.20;32.00
80252;DHT22;69562;37.974;23.708;2023-05-07T05:45:43;25.30;32.10
80252;DHT22;69562;37.974;23.708;2023-05-07T05:48:09;25.20;32.00
80252;DHT22;69562;37.974;23.708;2023-05-07T05:50:34;25.20;32.00
80252;DHT22;69562;37.974;23.708;2023-05-07T05:53:03;25.30;32.10
80252;DHT22;69562;37.974;23.708;2023-05-07T05:55:29;25.30;32.10
80252;DHT22;69562;37.974;23.708;2023-05-07T05:57:54;25.30;32.10
80252;DHT22;69562;37.974;23.708;2023-05-07T06:00:20;25.20;32.00
80252;DHT22;69562;37.974;23.708;2023-05-07T06:02:47;25.30;32.10
80252;DHT22;69562;37.974;23.708;2023-05-07T06:05:13;25.20;32.10
80252;DHT22;69562;37.974;23.708;2023-05-07T06:07:39;25.20;32.10
80252;DHT22;69562;37.974;23.708;2023-05-07T06:10:04;25.20;32.20
80252;DHT22;69562;37.974;23.708;2023-05-07T06:12:30;25.20;32.20
80252;DHT22;69562;37.974;23.708;2023-05-07T06:14:56;25.20;32.20
80252;DHT22;69562;37.974;23.708;2023-05-07T06:17:21;25.20;32.20
80252;DHT22;69562;37.974;23.708;2023-05-07T06:19:47;25.20;32.20
80252;DHT22;69562;37.974;23.708;2023-05-07T06:22:12;25.20;32.30
80252;DHT22;69562;37.974;23.708;2023-05-07T06:24:38;25.20;32.30
80252;DHT22;69562;37.974;23.708;2023-05-07T06:27:03;25.20;32.30
80252;DHT22;69562;37.974;23.708;2023-05-07T06:29:29;25.20;32.40
80252;DHT22;69562;37.974;23.708;2023-05-07T06:31:56;25.10;32.30
80252;DHT22;69562;37.974;23.708;2023-05-07T06:34:31;25.10;32.20
80252;DHT22;69562;37.974;23.708;2023-05-07T06:36:56;25.10;32.20
80252;DHT22;69562;37.974;23.708;2023-05-07T06:39:22;25.10;32.20
80252;DHT22;69562;37.974;23.708;2023-05-07T06:41:47;25.10;32.20
80252;DHT22;69562;37.974;23.708;2023-05-07T06:44:13;25.10;32.20
80252;DHT22;69562;37.974;23.708;2023-05-07T06:46:38;25.10;32.20
80252;DHT22;69562;37.974;23.708;2023-05-07T06:49:04;25.10;32.20
80252;DHT22;69562;37.974;23.708;2023-05-07T06:51:30;25.10;32.10
80252;DHT22;69562;37.974;23.708;2023-05-07T06:53:55;25.10;32.10
80252;DHT22;69562;37.974;23.708;2023-05-07T06:56:21;25.10;32.10
80252;DHT22;69562;37.974;23.708;2023-05-07T06:58:48;25.10;32.10
80252;DHT22;69562;37.974;23.708;2023-05-07T07:01:13;25.10;32.10
80252;DHT22;69562;37.974;23.708;2023-05-07T07:03:39;25.00;32.00
80252;DHT22;69562;37.974;23.708;2023-05-07T07:06:05;25.00;32.00
80252;DHT22;69562;37.974;23.708;2023-05-07T07:08:30;25.00;32.00
80252;DHT22;69562;37.974;23.708;2023-05-07T07:10:56;25.00;32.00
80252;DHT22;69562;37.974;23.708;2023-05-07T07:13:22;25.00;32.00
80252;DHT22;69562;37.974;23.708;2023-05-07T07:15:48;25.00;32.00
80252;DHT22;69562;37.974;23.708;2023-05-07T07:18:13;25.00;31.90
80252;DHT22;69562;37.974;23.708;2023-05-07T07:20:39;25.00;31.90
80252;DHT22;69562;37.974;23.708;2023-05-07T07:23:04;25.00;32.00
80252;DHT22;69562;37.974;23.708;2023-05-07T07:25:30;24.90;31.80
80252;DHT22;69562;37.974;23.708;2023-05-07T07:27:56;24.90;31.80
80252;DHT22;69562;37.974;23.708;2023-05-07T07:30:22;24.90;31.80
80252;DHT22;69562;37.974;23.708;2023-05-07T07:32:47;24.90;31.80
80252;DHT22;69562;37.974;23.708;2023-05-07T07:35:13;24.90;31.80
80252;DHT22;69562;37.974;23.708;2023-05-07T07:37:38;24.90;31.80
80252;DHT22;69562;37.974;23.708;2023-05-07T07:40:04;24.90;31.80
80252;DHT22;69562;37.974;23.708;2023-05-07T07:42:30;24.90;31.70
80252;DHT22;69562;37.974;23.708;2023-05-07T07:44:55;24.90;31.70
80252;DHT22;69562;37.974;23.708;2023-05-07T07:47:22;24.90;31.70
80252;DHT22;69562;37.974;23.708;2023-05-07T07:49:47;24.90;31.70
80252;DHT22;69562;37.974;23.708;2023-05-07T07:52:13;24.90;31.70
80252;DHT22;69562;37.974;23.708;2023-05-07T07:54:39;24.80;31.70
80252;DHT22;69562;37.974;23.708;2023-05-07T07:57:04;24.80;31.60
80252;DHT22;69562;37.974;23.708;2023-05-07T07:59:30;24.80;31.60
80252;DHT22;69562;37.974;23.708;2023-05-07T08:01:55;24.80;31.70
80252;DHT22;69562;37.974;23.708;2023-05-07T08:04:22;24.80;31.70
80252;DHT22;69562;37.974;23.708;2023-05-07T08:06:48;24.80;31.70
80252;DHT22;69562;37.974;23.708;2023-05-07T08:09:13;24.80;31.70
80252;DHT22;69562;37.974;23.708;2023-05-07T08:11:39;24.80;31.70
80252;DHT22;69562;37.974;23.708;2023-05-07T08:14:05;24.70;31.60
80252;DHT22;69562;37.974;23.708;2023-05-07T08:16:30;24.70;31.60
80252;DHT22;69562;37.974;23.708;2023-05-07T08:18:56;24.70;31.70
80252;DHT22;69562;37.974;23.708;2023-05-07T08:21:22;24.70;31.60
80252;DHT22;69562;37.974;23.708;2023-05-07T08:23:47;24.70;31.60
80252;DHT22;69562;37.974;23.708;2023-05-07T08:26:13;24.70;31.70
80252;DHT22;69562;37.974;23.708;2023-05-07T08:28:38;24.70;32.60
80252;DHT22;69562;37.974;23.708;2023-05-07T08:31:05;24.70;31.60
80252;DHT22;69562;37.974;23.708;2023-05-07T08:33:30;24.70;31.60
80252;DHT22;69562;37.974;23.708;2023-05-07T08:35:56;24.70;31.70
80252;DHT22;69562;37.974;23.708;2023-05-07T08:38:21;24.70;31.60
80252;DHT22;69562;37.974;23.708;2023-05-07T08:40:47;24.70;31.70
80252;DHT22;69562;37.974;23.708;2023-05-07T08:43:13;24.70;31.70
80252;DHT22;69562;37.974;23.708;2023-05-07T08:45:40;24.60;31.70
80252;DHT22;69562;37.974;23.708;2023-05-07T08:48:08;24.70;31.80
80252;DHT22;69562;37.974;23.708;2023-05-07T08:50:35;24.60;31.70
80252;DHT22;69562;37.974;23.708;2023-05-07T08:53:02;24.60;31.70
80252;DHT22;69562;37.974;23.708;2023-05-07T08:55:28;24.60;31.70
80252;DHT22;69562;37.974;23.708;2023-05-07T08:57:53;24.70;31.80
80252;DHT22;69562;37.974;23.708;2023-05-07T09:00:19;24.60;31.70
80252;DHT22;69562;37.974;23.708;2023-05-07T09:02:45;24.60;31.80
80252;DHT22;69562;37.974;23.708;2023-05-07T09:05:10;24.60;31.80
80252;DHT22;69562;37.974;23.708;2023-05-07T09:07:36;24.60;31.80
80252;DHT22;69562;37.974;23.708;2023-05-07T09:10:02;24.60;31.80
80252;DHT22;69562;37.974;23.708;2023-05-07T09:12:28;24.60;31.80
80252;DHT22;69562;37.974;23.708;2023-05-07T09:14:54;24.50;31.70
80252;DHT22;69562;37.974;23.708;2023-05-07T09:17:19;24.50;31.70
80252;DHT22;69562;37.974;23.708;2023-05-07T09:19:45;24.50;31.70
80252;DHT22;69562;37.974;23.708;2023-05-07T09:22:11;24.50;31.70
80252;DHT22;69562;37.974;23.708;2023-05-07T09:24:37;24.60;31.80
80252;DHT22;69562;37.974;23.708;2023-05-07T09:27:03;24.50;31.80
80252;DHT22;69562;37.974;23.708;2023-05-07T09:29:29;24.50;31.80
80252;DHT22;69562;37.974;23.708;2023-05-07T09:31:55;24.50;31.80
80252;DHT22;69562;37.974;23.708;2023-05-07T09:34:21;24.50;31.80
80252;DHT22;69562;37.974;23.708;2023-05-07T09:36:47;24.50;31.80
80252;DHT22;69562;37.974;23.708;2023-05-07T09:39:13;24.50;31.80
80252;DHT22;69562;37.974;23.708;2023-05-07T09:41:45;24.50;31.80
80252;DHT22;69562;37.974;23.708;2023-05-07T09:44:10;24.50;31.80
80252;DHT22;69562;37.974;23.708;2023-05-07T09:46:36;24.50;31.80
80252;DHT22;69562;37.974;23.708;2023-05-07T09:49:03;24.50;31.80
80252;DHT22;69562;37.974;23.708;2023-05-07T09:54:00;24.50;31.70
80252;DHT22;69562;37.974;23.708;2023-05-07T09:56:29;24.50;31.80
80252;DHT22;69562;37.974;23.708;2023-05-07T09:58:54;24.50;31.70
80252;DHT22;69562;37.974;23.708;2023-05-07T10:01:21;24.50;31.70
80252;DHT22;69562;37.974;23.708;2023-05-07T10:03:47;24.50;31.70
80252;DHT22;69562;37.974;23.708;2023-05-07T10:06:15;24.50;31.70
80252;DHT22;69562;37.974;23.708;2023-05-07T10:08:40;24.50;31.70
80252;DHT22;69562;37.974;23.708;2023-05-07T10:11:07;24.50;31.70
80252;DHT22;69562;37.974;23.708;2023-05-07T10:13:35;24.50;31.70
80252;DHT22;69562;37.974;23.708;2023-05-07T10:16:03;24.50;31.70
80252;DHT22;69562;37.974;23.708;2023-05-07T10:18:29;24.50;31.70
80252;DHT22;69562;37.974;23.708;2023-05-07T10:21:08;24.50;31.70
80252;DHT22;69562;37.974;23.708;2023-05-07T10:23:33;24.50;31.70
80252;DHT22;69562;37.974;23.708;2023-05-07T10:26:01;24.50;31.70
80252;DHT22;69562;37.974;23.708;2023-05-07T10:28:27;24.50;31.60
80252;DHT22;69562;37.974;23.708;2023-05-07T10:33:34;24.50;31.70
80252;DHT22;69562;37.974;23.708;2023-05-07T10:36:01;24.50;31.60
80252;DHT22;69562;37.974;23.708;2023-05-07T10:38:29;24.50;31.60
80252;DHT22;69562;37.974;23.708;2023-05-07T10:40:55;24.50;31.70
80252;DHT22;69562;37.974;23.708;2023-05-07T10:43:21;24.40;31.60
80252;DHT22;69562;37.974;23.708;2023-05-07T10:51:25;24.50;31.60
80252;DHT22;69562;37.974;23.708;2023-05-07T10:56:39;24.40;31.60
80252;DHT22;69562;37.974;23.708;2023-05-07T11:02:07;24.40;31.60
80252;DHT22;69562;37.974;23.708;2023-05-07T11:04:34;24.50;31.60
80252;DHT22;69562;37.974;23.708;2023-05-07T11:15:09;24.40;31.70
80252;DHT22;69562;37.974;23.708;2023-05-07T11:17:35;24.40;31.50
80252;DHT22;69562;37.974;23.708;2023-05-07T11:20:16;24.50;31.60
80252;DHT22;69562;37.974;23.708;2023-05-07T11:22:42;24.40;31.50
80252;DHT22;69562;37.974;23.708;2023-05-07T11:25:08;24.40;31.50
80252;DHT22;69562;37.974;23.708;2023-05-07T11:27:33;24.40;31.50
80252;DHT22;69562;37.974;23.708;2023-05-07T11:29:59;24.40;31.50
80252;DHT22;69562;37.974;23.708;2023-05-07T11:32:27;24.50;31.50
80252;DHT22;69562;37.974;23.708;2023-05-07T11:34:53;24.50;31.50
80252;DHT22;69562;37.974;23.708;2023-05-07T11:37:20;24.40;31.50
80252;DHT22;69562;37.974;23.708;2023-05-07T11:39:45;24.40;31.50
80252;DHT22;69562;37.974;23.708;2023-05-07T11:42:30;24.40;31.50
80252;DHT22;69562;37.974;23.708;2023-05-07T11:44:56;24.50;31.50
80252;DHT22;69562;37.974;23.708;2023-05-07T11:47:21;24.40;31.40
80252;DHT22;69562;37.974;23.708;2023-05-07T11:49:47;24.50;31.50
80252;DHT22;69562;37.974;23.708;2023-05-07T11:52:13;24.50;31.50
80252;DHT22;69562;37.974;23.708;2023-05-07T11:54:39;24.50;31.40
80252;DHT22;69562;37.974;23.708;2023-05-07T11:57:04;24.40;31.40
80252;DHT22;69562;37.974;23.708;2023-05-07T11:59:37;24.50;31.50
80252;DHT22;69562;37.974;23.708;2023-05-07T12:02:03;24.40;31.40
80252;DHT22;69562;37.974;23.708;2023-05-07T12:04:29;24.40;31.40
80252;DHT22;69562;37.974;23.708;2023-05-07T12:06:55;24.40;31.40
80252;DHT22;69562;37.974;23.708;2023-05-07T12:09:23;24.40;31.40
80252;DHT22;69562;37.974;23.708;2023-05-07T12:11:49;24.40;31.40
80252;DHT22;69562;37.974;23.708;2023-05-07T12:14:14;24.40;31.40
80252;DHT22;69562;37.974;23.708;2023-05-07T12:16:41;24.40;31.40
80252;DHT22;69562;37.974;23.708;2023-05-07T12:19:08;24.40;32.40
80252;DHT22;69562;37.974;23.708;2023-05-07T12:21:34;24.40;31.40
80252;DHT22;69562;37.974;23.708;2023-05-07T12:24:01;24.40;32.30
80252;DHT22;69562;37.974;23.708;2023-05-07T12:26:26;24.40;31.40
80252;DHT22;69562;37.974;23.708;2023-05-07T12:28:52;24.40;31.40
80252;DHT22;69562;37.974;23.708;2023-05-07T12:31:18;24.40;31.40
80252;DHT22;69562;37.974;23.708;2023-05-07T12:33:43;24.40;31.40
80252;DHT22;69562;37.974;23.708;2023-05-07T12:36:11;24.40;31.40
80252;DHT22;69562;37.974;23.708;2023-05-07T12:38:37;24.40;31.40
80252;DHT22;69562;37.974;23.708;2023-05-07T12:41:03;24.40;31.30
80252;DHT22;69562;37.974;23.708;2023-05-07T12:43:29;24.40;31.40
80252;DHT22;69562;37.974;23.708;2023-05-07T12:45:55;24.40;31.40
80252;DHT22;69562;37.974;23.708;2023-05-07T12:48:22;24.40;32.40
80252;DHT22;69562;37.974;23.708;2023-05-07T12:50:50;24.40;31.40
80252;DHT22;69562;37.974;23.708;2023-05-07T12:53:16;24.40;31.40
80252;DHT22;69562;37.974;23.708;2023-05-07T12:58:07;24.40;31.30
80252;DHT22;69562;37.974;23.708;2023-05-07T13:02:59;24.40;31.40
80252;DHT22;69562;37.974;23.708;2023-05-07T13:05:24;24.40;31.30
80252;DHT22;69562;37.974;23.708;2023-05-07T13:07:53;24.40;31.40
80252;DHT22;69562;37.974;23.708;2023-05-07T13:10:19;24.40;31.30
80252;DHT22;69562;37.974;23.708;2023-05-07T13:12:45;24.40;31.30
80252;DHT22;69562;37.974;23.708;2023-05-07T13:15:10;24.40;31.30
80252;DHT22;69562;37.974;23.708;2023-05-07T13:17:36;24.40;31.30
80252;DHT22;69562;37.974;23.708;2023-05-07T13:20:01;24.40;31.30
80252;DHT22;69562;37.974;23.708;2023-05-07T13:22:27;24.40;31.20
80252;DHT22;69562;37.974;23.708;2023-05-07T13:24:52;24.40;31.20
80252;DHT22;69562;37.974;23.708;2023-05-07T13:27:18;24.40;31.20
80252;DHT22;69562;37.974;23.708;2023-05-07T13:29:44;24.40;31.20
80252;DHT22;69562;37.974;23.708;2023-05-07T13:32:10;24.40;31.20
80252;DHT22;69562;37.974;23.708;2023-05-07T13:34:35;24.40;31.20
80252;DHT22;69562;37.974;23.708;2023-05-07T13:37:02;24.40;31.20
80252;DHT22;69562;37.974;23.708;2023-05-07T13:39:27;24.40;31.20
80252;DHT22;69562;37.974;23.708;2023-05-07T13:41:53;24.40;31.10
80252;DHT22;69562;37.974;23.708;2023-05-07T13:44:19;24.40;31.10
80252;DHT22;69562;37.974;23.708;2023-05-07T13:46:44;24.40;31.10
80252;DHT22;69562;37.974;23.708;2023-05-07T13:49:10;24.40;31.10
80252;DHT22;69562;37.974;23.708;2023-05-07T13:51:37;24.40;31.10
80252;DHT22;69562;37.974;23.708;2023-05-07T13:54:03;24.40;31.10
80252;DHT22;69562;37.974;23.708;2023-05-07T13:56:29;24.40;31.10
80252;DHT22;69562;37.974;23.708;2023-05-07T13:58:56;24.40;31.10
80252;DHT22;69562;37.974;23.708;2023-05-07T14:01:22;24.40;31.10
80252;DHT22;69562;37.974;23.708;2023-05-07T14:03:47;24.40;32.10
80252;DHT22;69562;37.974;23.708;2023-05-07T14:06:13;24.40;31.10
80252;DHT22;69562;37.974;23.708;2023-05-07T14:08:39;24.40;31.10
80252;DHT22;69562;37.974;23.708;2023-05-07T14:11:05;24.40;31.10
80252;DHT22;69562;37.974;23.708;2023-05-07T14:13:31;24.40;31.10
80252;DHT22;69562;37.974;23.708;2023-05-07T14:15:57;24.40;31.10
80252;DHT22;69562;37.974;23.708;2023-05-07T14:18:23;24.40;31.10
80252;DHT22;69562;37.974;23.708;2023-05-07T14:20:48;24.40;31.00
80252;DHT22;69562;37.974;23.708;2023-05-07T14:23:14;24.40;31.10
80252;DHT22;69562;37.974;23.708;2023-05-07T14:25:40;24.40;31.00
80252;DHT22;69562;37.974;23.708;2023-05-07T14:28:06;24.40;31.00
80252;DHT22;69562;37.974;23.708;2023-05-07T14:30:31;24.40;31.00
80252;DHT22;69562;37.974;23.708;2023-05-07T14:32:57;24.40;31.00
80252;DHT22;69562;37.974;23.708;2023-05-07T14:35:23;24.30;30.90
80252;DHT22;69562;37.974;23.708;2023-05-07T14:37:48;24.40;31.00
80252;DHT22;69562;37.974;23.708;2023-05-07T14:40:14;24.40;31.00
80252;DHT22;69562;37.974;23.708;2023-05-07T14:42:40;24.40;31.00
80252;DHT22;69562;37.974;23.708;2023-05-07T14:45:05;24.40;31.00
80252;DHT22;69562;37.974;23.708;2023-05-07T14:47:31;24.30;30.90
80252;DHT22;69562;37.974;23.708;2023-05-07T14:49:57;24.40;31.00
80252;DHT22;69562;37.974;23.708;2023-05-07T14:52:23;24.40;31.00
80252;DHT22;69562;37.974;23.708;2023-05-07T14:54:49;24.40;32.00
80252;DHT22;69562;37.974;23.708;2023-05-07T14:57:14;24.30;30.90
80252;DHT22;69562;37.974;23.708;2023-05-07T14:59:41;24.40;31.00
80252;DHT22;69562;37.974;23.708;2023-05-07T15:02:07;24.40;32.00
80252;DHT22;69562;37.974;23.708;2023-05-07T15:04:33;24.40;31.00
80252;DHT22;69562;37.974;23.708;2023-05-07T15:06:59;24.40;31.00
80252;DHT22;69562;37.974;23.708;2023-05-07T15:09:25;24.40;30.90
80252;DHT22;69562;37.974;23.708;2023-05-07T15:11:50;24.40;30.90
80252;DHT22;69562;37.974;23.708;2023-05-07T15:14:16;24.30;30.80
80252;DHT22;69562;37.974;23.708;2023-05-07T15:16:42;24.40;30.80
80252;DHT22;69562;37.974;23.708;2023-05-07T15:19:07;24.40;30.80
80252;DHT22;69562;37.974;23.708;2023-05-07T15:21:33;24.40;30.80
80252;DHT22;69562;37.974;23.708;2023-05-07T15:24:00;24.40;30.80
80252;DHT22;69562;37.974;23.708;2023-05-07T15:26:26;24.40;30.70
80252;DHT22;69562;37.974;23.708;2023-05-07T15:28:51;24.40;30.70
80252;DHT22;69562;37.974;23.708;2023-05-07T15:31:17;24.30;30.70
80252;DHT22;69562;37.974;23.708;2023-05-07T15:33:43;24.30;30.70
80252;DHT22;69562;37.974;23.708;2023-05-07T15:36:10;24.30;30.70
80252;DHT22;69562;37.974;23.708;2023-05-07T15:38:36;24.40;30.80